Date,TemperatureHighF,TemperatureAvgF,TemperatureLowF,DewpointHighF,DewpointAvgF,DewpointLowF,HumidityHigh,HumidityAvg,HumidityLow,PressureMaxIn,PressureMinIn,WindSpeedMaxMPH,WindSpeedAvgMPH,GustSpeedMaxMPH,PrecipitationSumIn
2014-1-1,68.3,49.6,35.9,34.7,29.5,26.4,73,50,22,30.17,30.07,4,1,9,0.00
2014-1-2,73.3,51.7,34.7,32.6,29.1,23.5,78,47,16,30.18,30.05,3,1,6,0.00
2014-1-3,72.8,52.4,38.5,34.6,29.8,25.6,67,46,18,30.07,29.90,5,1,11,0.00
2014-1-4,65.3,50.3,39.1,37.7,31.1,25.0,73,51,22,30.05,29.93,5,1,9,0.00
2014-1-5,62.4,48.2,34.1,31.3,20.6,-4.1,79,41,9,30.19,30.04,7,2,13,0.00
2014-1-6,63.6,46.2,27.9,22.7,12.7,-2.4,57,28,12,30.27,30.14,6,1,12,0.00
2014-1-7,68.2,47.0,28.6,28.0,17.5,11.4,68,35,12,30.20,30.06,5,1,8,0.00
2014-1-8,65.3,50.9,37.6,26.5,21.7,13.2,58,35,15,30.10,30.01,5,1,10,0.00
2014-1-9,63.9,46.7,34.0,27.0,22.0,16.3,59,41,16,30.09,29.98,6,1,12,0.00
2014-1-10,64.3,47.1,32.4,27.4,24.4,21.1,68,43,23,30.18,30.05,6,1,7,0.00
2014-1-11,70.7,54.8,34.9,33.5,29.2,25.4,68,41,22,30.22,30.07,4,1,6,0.00
2014-1-12,68.0,54.3,37.7,32.8,30.4,27.8,70,43,23,30.19,30.00,6,2,9,0.00
2014-1-13,67.0,50.7,34.5,29.4,21.3,10.3,62,34,11,30.32,30.17,7,1,14,0.00
2014-1-14,69.3,49.4,33.6,26.1,20.2,15.2,57,36,14,30.33,30.22,11,2,17,0.00
2014-1-15,72.2,50.7,32.9,27.5,20.4,15.9,55,33,13,30.33,30.17,4,1,7,0.00
2014-1-16,72.0,52.2,36.1,27.0,20.7,11.3,56,33,10,30.18,30.05,6,2,12,0.00
2014-1-17,73.3,50.1,33.8,25.8,20.2,15.3,57,34,12,30.19,30.06,7,1,7,0.00
2014-1-18,73.4,52.6,34.7,24.2,18.7,15.2,51,29,12,30.15,30.05,4,1,6,0.00
2014-1-19,73.3,53.7,39.2,26.8,20.8,15.7,46,30,12,30.19,30.08,3,1,6,0.00
2014-1-20,75.0,55.9,38.0,26.3,22.6,18.6,53,31,13,30.22,30.09,4,1,8,0.00
2014-1-21,76.3,55.4,35.9,25.3,20.3,12.4,54,29,9,30.22,30.06,4,1,9,0.00
2014-1-22,73.0,56.8,42.0,26.2,22.0,15.9,49,28,12,30.07,29.84,5,1,9,0.00
2014-1-23,69.3,52.8,37.8,29.4,23.9,20.8,57,35,17,30.18,29.88,4,1,6,0.00
2014-1-24,66.0,53.7,42.5,29.1,25.2,21.8,55,34,21,30.30,30.18,3,1,6,0.00
2014-1-25,71.0,58.9,49.2,47.4,33.5,22.7,57,39,27,30.23,30.05,6,1,10,0.00
2014-1-26,69.3,55.0,40.6,37.5,31.3,25.6,68,43,21,30.08,29.93,6,1,11,0.00
2014-1-27,68.7,55.8,43.2,34.0,28.2,23.3,53,36,21,30.01,29.91,6,1,11,0.00
2014-1-28,70.7,52.0,37.5,31.3,26.2,16.3,67,41,13,30.10,29.98,7,1,12,0.00
2014-1-29,72.5,52.9,34.7,25.3,21.4,15.9,55,32,13,30.10,29.96,4,1,8,0.00
2014-1-30,76.5,59.8,41.5,30.4,24.0,14.4,46,28,12,29.97,29.79,9,2,16,0.00
2014-1-31,67.9,62.3,54.2,39.7,31.8,24.3,57,33,21,29.80,29.70,13,5,22,0.00